Time;durP1;ratioP1;P1;durP2;ratioP2;P2;SDS_P1;SDS_P2;PMS_P1;PMS_P2;Temp;Humidity;BMP_temperature;BMP_pressure;BME280_temperature;BME280_humidity;BME280_pressure;Samples;Min_cycle;Max_cycle;Signal;HPM_P1;HPM_P2
2021/10/15 00:01:10;;;;;;;10.77;2.65;;;;;;;;;;4872010;29;20224;-86
2021/10/15 00:03:36;;;;;;;10.55;2.80;;;;;;;;;;4895778;29;20071;-86
2021/10/15 00:06:02;;;;;;;9.50;2.35;;;;;;;;;;4889859;29;20104;-85
2021/10/15 00:08:29;;;;;;;8.77;2.55;;;;;;;;;;4879229;29;20027;-86
2021/10/15 00:10:56;;;;;;;8.90;2.50;;;;;;;;;;4893377;29;20029;-86
2021/10/15 00:13:22;;;;;;;11.35;2.20;;;;;;;;;;4881991;29;20047;-86
2021/10/15 00:15:48;;;;;;;11.02;2.40;;;;;;;;;;4885016;29;20065;-86
2021/10/15 00:18:14;;;;;;;8.80;2.42;;;;;;;;;;4889236;29;20068;-85
2021/10/15 00:20:40;;;;;;;;;;;;;;;;;;4888585;29;20052;-86
2021/10/15 00:23:07;;;;;;;11.05;2.45;;;;;;;;;;4887318;29;19914;-84
2021/10/15 00:25:34;;;;;;;11.15;3.35;;;;;;;;;;4897502;29;20927;-86
2021/10/15 00:28:00;;;;;;;11.30;2.58;;;;;;;;;;4880870;29;20072;-84
2021/10/15 00:30:26;;;;;;;9.77;2.30;;;;;;;;;;4888076;29;20041;-86
2021/10/15 00:32:52;;;;;;;11.48;2.65;;;;;;;;;;4887578;29;20037;-86
2021/10/15 00:35:19;;;;;;;8.80;2.30;;;;;;;;;;4872773;29;20527;-86
2021/10/15 00:37:48;;;;;;;8.23;2.50;;;;;;;;;;4891896;29;20033;-86
2021/10/15 00:40:16;;;;;;;7.53;2.20;;;;;;;;;;4892169;29;20542;-86
2021/10/15 00:42:42;;;;;;;7.80;2.55;;;;;;;;;;4878027;29;20267;-86
2021/10/15 00:45:09;;;;;;;8.18;2.30;;;;;;;;;;4878124;29;20072;-87
2021/10/15 00:47:35;;;;;;;;;;;;;;;;;;4893754;29;20032;-86
2021/10/15 00:50:02;;;;;;;7.82;2.10;;;;;;;;;;4871633;29;20040;-86
2021/10/15 00:52:29;;;;;;;9.18;2.30;;;;;;;;;;4872064;29;20088;-86
2021/10/15 00:54:55;;;;;;;9.98;2.35;;;;;;;;;;4866079;29;20052;-86
2021/10/15 00:57:22;;;;;;;;;;;;;;;;;;4870616;29;20171;-86
2021/10/15 00:59:48;;;;;;;8.15;2.25;;;;;;;;;;4896393;29;19945;-86
2021/10/15 01:02:14;;;;;;;8.07;2.33;;;;;;;;;;4876269;29;20036;-85
2021/10/15 01:04:41;;;;;;;8.95;2.45;;;;;;;;;;4888091;29;20028;-86
2021/10/15 01:07:08;;;;;;;8.75;2.63;;;;;;;;;;4892364;29;20562;-87
2021/10/15 01:09:36;;;;;;;8.57;2.25;;;;;;;;;;4898902;29;20032;-87
2021/10/15 01:12:02;;;;;;;9.07;2.30;;;;;;;;;;4866839;29;20037;-86
2021/10/15 01:14:29;;;;;;;9.70;2.35;;;;;;;;;;4864664;29;20052;-87
2021/10/15 01:16:55;;;;;;;8.40;2.38;;;;;;;;;;4890345;29;20024;-87
2021/10/15 01:19:22;;;;;;;8.82;2.20;;;;;;;;;;4860618;29;20108;-86
2021/10/15 01:21:49;;;;;;;10.63;2.38;;;;;;;;;;4888966;29;20127;-86
2021/10/15 01:24:18;;;;;;;9.70;2.42;;;;;;;;;;4882961;29;20041;-87
2021/10/15 01:26:45;;;;;;;8.60;2.50;;;;;;;;;;4875377;29;20050;-86
2021/10/15 01:29:11;;;;;;;8.85;2.70;;;;;;;;;;4876379;29;20063;-86
2021/10/15 01:31:38;;;;;;;11.68;2.97;;;;;;;;;;4880639;29;20556;-86
2021/10/15 01:34:08;;;;;;;9.00;2.78;;;;;;;;;;4882282;29;20040;-87
2021/10/15 01:36:36;;;;;;;10.52;2.70;;;;;;;;;;4864981;29;20033;-86
2021/10/15 01:39:02;;;;;;;7.78;2.33;;;;;;;;;;4874449;29;20117;-86
2021/10/15 01:41:29;;;;;;;7.80;2.22;;;;;;;;;;4865927;29;20063;-86
2021/10/15 01:43:56;;;;;;;8.23;2.55;;;;;;;;;;4866963;29;20497;-85
2021/10/15 01:46:22;;;;;;;8.80;2.42;;;;;;;;;;4872695;29;20060;-86
2021/10/15 01:48:48;;;;;;;8.38;2.10;;;;;;;;;;4886348;29;20064;-86
2021/10/15 01:51:16;;;;;;;11.82;2.20;;;;;;;;;;4887259;29;20071;-85
2021/10/15 01:53:42;;;;;;;8.15;2.08;;;;;;;;;;4891423;29;20092;-85
2021/10/15 01:56:09;;;;;;;7.80;2.30;;;;;;;;;;4870997;29;20029;-86
2021/10/15 01:58:36;;;;;;;9.57;2.30;;;;;;;;;;4874548;29;20841;-86
2021/10/15 02:01:02;;;;;;;9.25;2.25;;;;;;;;;;4879815;29;20699;-85
2021/10/15 02:03:28;;;;;;;9.07;2.42;;;;;;;;;;4881221;29;20120;-87
2021/10/15 02:05:55;;;;;;;7.80;2.20;;;;;;;;;;4883532;29;20039;-85
2021/10/15 02:08:21;;;;;;;8.93;2.30;;;;;;;;;;4870432;29;20727;-84
2021/10/15 02:10:48;;;;;;;9.35;2.40;;;;;;;;;;4884715;29;20092;-85
2021/10/15 02:13:15;;;;;;;8.93;2.25;;;;;;;;;;4883022;29;20049;-85
2021/10/15 02:15:43;;;;;;;9.65;2.28;;;;;;;;;;4884980;29;20131;-84
2021/10/15 02:18:09;;;;;;;9.27;2.40;;;;;;;;;;4886456;29;20132;-85
2021/10/15 02:20:35;;;;;;;8.27;2.35;;;;;;;;;;4884930;29;20060;-85
2021/10/15 02:23:02;;;;;;;9.13;2.30;;;;;;;;;;4884252;29;20144;-85
2021/10/15 02:25:29;;;;;;;8.48;2.22;;;;;;;;;;4871206;29;20068;-85
2021/10/15 02:27:56;;;;;;;9.00;2.55;;;;;;;;;;4885345;29;20088;-85
2021/10/15 02:30:22;;;;;;;7.95;2.08;;;;;;;;;;4866200;29;20060;-85
2021/10/15 02:32:48;;;;;;;7.93;2.40;;;;;;;;;;4867816;29;20041;-86
2021/10/15 02:35:14;;;;;;;;;;;;;;;;;;4863357;29;20060;-85
2021/10/15 02:37:40;;;;;;;8.27;2.55;;;;;;;;;;4875120;29;19957;-86
2021/10/15 02:40:07;;;;;;;6.22;2.00;;;;;;;;;;4876222;29;20069;-84
2021/10/15 02:42:33;;;;;;;12.15;2.25;;;;;;;;;;4887994;29;20042;-87
2021/10/15 02:44:59;;;;;;;;;;;;;;;;;;4883418;29;20033;-85
2021/10/15 02:47:26;;;;;;;8.82;2.60;;;;;;;;;;4883625;29;21169;-84
2021/10/15 02:49:52;;;;;;;;;;;;;;;;;;4872081;29;20025;-86
2021/10/15 02:52:19;;;;;;;7.20;2.13;;;;;;;;;;4876350;29;19919;-84
2021/10/15 02:54:46;;;;;;;7.53;2.30;;;;;;;;;;4860848;29;20543;-85
2021/10/15 02:57:14;;;;;;;8.23;2.15;;;;;;;;;;4864723;29;20052;-86
2021/10/15 02:59:41;;;;;;;9.05;2.20;;;;;;;;;;4867763;29;20058;-86
2021/10/15 03:02:08;;;;;;;7.45;2.20;;;;;;;;;;4863929;29;20024;-84
2021/10/15 03:04:35;;;;;;;7.45;2.13;;;;;;;;;;4877610;29;20040;-86
2021/10/15 03:07:02;;;;;;;8.05;2.17;;;;;;;;;;4862906;29;20036;-86
2021/10/15 03:09:29;;;;;;;6.75;2.30;;;;;;;;;;4875252;29;20499;-86
2021/10/15 03:11:57;;;;;;;8.63;2.28;;;;;;;;;;4864797;29;21276;-85
2021/10/15 03:14:24;;;;;;;9.55;2.10;;;;;;;;;;4860536;29;20032;-85
2021/10/15 03:16:50;;;;;;;7.25;2.28;;;;;;;;;;4866150;29;20576;-86
2021/10/15 03:19:17;;;;;;;6.40;1.92;;;;;;;;;;4862828;29;20623;-85
2021/10/15 03:21:44;;;;;;;7.60;2.58;;;;;;;;;;4888218;29;20054;-85
2021/10/15 03:24:10;;;;;;;7.93;2.60;;;;;;;;;;4879827;29;20693;-86
2021/10/15 03:26:37;;;;;;;7.60;2.20;;;;;;;;;;4885404;29;20032;-86
2021/10/15 03:29:04;;;;;;;7.03;2.42;;;;;;;;;;4881181;29;20924;-85
2021/10/15 03:31:30;;;;;;;7.72;2.10;;;;;;;;;;4872795;29;20047;-85
2021/10/15 03:33:57;;;;;;;8.82;2.08;;;;;;;;;;4887470;29;20040;-86
2021/10/15 03:36:24;;;;;;;9.73;2.17;;;;;;;;;;4869639;29;20048;-85
2021/10/15 03:38:50;;;;;;;9.60;2.05;;;;;;;;;;4870619;29;20159;-86
2021/10/15 03:41:16;;;;;;;8.05;2.30;;;;;;;;;;4894985;29;20028;-86
2021/10/15 03:43:43;;;;;;;8.25;2.38;;;;;;;;;;4869211;29;20096;-85
2021/10/15 03:46:09;;;;;;;;;;;;;;;;;;4878212;29;20044;-85
2021/10/15 03:48:36;;;;;;;8.00;2.17;;;;;;;;;;4875908;29;19927;-85
2021/10/15 03:51:03;;;;;;;8.27;2.15;;;;;;;;;;4860055;29;20091;-85
2021/10/15 03:53:30;;;;;;;9.60;2.25;;;;;;;;;;4859933;29;20029;-84
2021/10/15 03:55:57;;;;;;;8.13;2.00;;;;;;;;;;4879478;29;20103;-84
2021/10/15 03:58:23;;;;;;;8.68;2.28;;;;;;;;;;4865296;29;20049;-84
2021/10/15 04:00:49;;;;;;;9.05;2.40;;;;;;;;;;4866184;29;20072;-85
2021/10/15 04:03:16;;;;;;;6.25;1.98;;;;;;;;;;4859828;29;20032;-84
2021/10/15 04:05:42;;;;;;;9.20;2.35;;;;;;;;;;4878365;29;20120;-84
2021/10/15 04:08:08;;;;;;;;;;;;;;;;;;4872964;29;20120;-84
2021/10/15 04:10:35;;;;;;;8.45;2.72;;;;;;;;;;4870476;29;19920;-85
2021/10/15 04:13:02;;;;;;;8.00;2.05;;;;;;;;;;4864736;29;20116;-85
2021/10/15 04:15:28;;;;;;;9.18;3.00;;;;;;;;;;4873007;29;20065;-86
2021/10/15 04:17:54;;;;;;;;;;;;;;;;;;4861321;29;20048;-84
2021/10/15 04:20:21;;;;;;;9.02;2.20;;;;;;;;;;4869697;29;19924;-85
2021/10/15 04:22:47;;;;;;;;;;;;;;;;;;4860174;29;20121;-82
2021/10/15 04:25:14;;;;;;;9.43;2.45;;;;;;;;;;4860688;29;19987;-85
2021/10/15 04:27:41;;;;;;;8.13;2.22;;;;;;;;;;4860266;29;20121;-84
2021/10/15 04:30:08;;;;;;;7.10;2.03;;;;;;;;;;4856601;29;20481;-86
2021/10/15 04:32:37;;;;;;;8.57;2.63;;;;;;;;;;4861851;29;20035;-85
2021/10/15 04:35:06;;;;;;;7.50;2.35;;;;;;;;;;4869757;29;20131;-85
2021/10/15 04:37:33;;;;;;;8.13;2.30;;;;;;;;;;4859822;29;20543;-85
2021/10/15 04:40:01;;;;;;;9.57;2.10;;;;;;;;;;4885879;29;20095;-84
2021/10/15 04:42:31;;;;;;;9.02;2.40;;;;;;;;;;4873776;29;20154;-88
2021/10/15 04:45:01;;;;;;;8.50;2.97;;;;;;;;;;4885672;29;20500;-87
2021/10/15 04:47:52;;;;;;;7.22;2.20;;;;;;;;;;4876552;29;20032;-87
2021/10/15 04:50:40;;;;;;;9.55;2.40;;;;;;;;;;4908943;29;20028;-87
2021/10/15 04:53:08;;;;;;;8.98;2.63;;;;;;;;;;4873776;29;20053;-81
2021/10/15 04:55:35;;;;;;;9.23;2.42;;;;;;;;;;4861798;29;20107;-82
2021/10/15 04:58:02;;;;;;;6.72;2.25;;;;;;;;;;4873851;29;20109;-82
2021/10/15 05:00:30;;;;;;;8.60;2.97;;;;;;;;;;4863602;29;20075;-83
2021/10/15 05:02:57;;;;;;;9.57;2.67;;;;;;;;;;4873960;29;20040;-83
2021/10/15 05:05:27;;;;;;;8.73;2.45;;;;;;;;;;4872239;29;20029;-83
2021/10/15 05:07:54;;;;;;;8.57;2.60;;;;;;;;;;4861277;29;20061;-82
2021/10/15 05:10:21;;;;;;;10.57;2.35;;;;;;;;;;4867204;29;20032;-82
2021/10/15 05:12:49;;;;;;;12.80;2.53;;;;;;;;;;4871058;29;20139;-82
2021/10/15 05:15:16;;;;;;;6.22;2.20;;;;;;;;;;4854327;29;20052;-83
2021/10/15 05:17:43;;;;;;;8.52;2.55;;;;;;;;;;4852937;29;20057;-81
2021/10/15 05:20:12;;;;;;;9.48;2.50;;;;;;;;;;4852994;29;20048;-83
2021/10/15 05:22:38;;;;;;;9.77;2.33;;;;;;;;;;4855712;29;20046;-84
2021/10/15 05:25:08;;;;;;;11.85;2.72;;;;;;;;;;4857244;29;20091;-82
2021/10/15 05:27:36;;;;;;;7.35;2.40;;;;;;;;;;4849420;29;20061;-82
2021/10/15 05:30:07;;;;;;;11.65;3.00;;;;;;;;;;4854121;29;20045;-82
2021/10/15 05:32:35;;;;;;;9.65;2.90;;;;;;;;;;4857350;29;20085;-82
2021/10/15 05:35:03;;;;;;;7.80;2.42;;;;;;;;;;4856789;29;20135;-83
2021/10/15 05:37:29;;;;;;;10.55;2.70;;;;;;;;;;4851655;29;20037;-83
2021/10/15 05:39:56;;;;;;;8.82;2.55;;;;;;;;;;4867657;29;20041;-82
2021/10/15 05:42:23;;;;;;;7.00;2.30;;;;;;;;;;4855288;29;20041;-82
2021/10/15 05:44:51;;;;;;;8.18;2.20;;;;;;;;;;4853610;29;20089;-82
2021/10/15 05:47:17;;;;;;;9.60;2.85;;;;;;;;;;4853044;29;20221;-83
2021/10/15 05:49:44;;;;;;;8.18;2.50;;;;;;;;;;4858010;29;20028;-81
2021/10/15 05:52:17;;;;;;;6.72;2.30;;;;;;;;;;4868264;29;20066;-84
2021/10/15 05:55:04;;;;;;;8.40;2.90;;;;;;;;;;4860596;29;20033;-83
2021/10/15 06:00:01;;;;;;;13.15;2.70;;;;;;;;;;4852228;29;20766;-82
2021/10/15 06:02:32;;;;;;;9.00;2.80;;;;;;;;;;4851532;29;20472;-81
2021/10/15 06:16:01;;;;;;;9.55;3.05;;;;;;;;;;4865917;29;21474;-82
2021/10/15 06:18:36;;;;;;;9.95;2.80;;;;;;;;;;4876914;29;20120;-83
2021/10/15 06:21:03;;;;;;;10.57;2.83;;;;;;;;;;4877897;29;20056;-81
2021/10/15 06:23:30;;;;;;;8.82;3.00;;;;;;;;;;4867713;29;20055;-84
2021/10/15 06:26:04;;;;;;;13.93;3.05;;;;;;;;;;4867191;29;20036;-83
2021/10/15 06:28:31;;;;;;;8.20;2.83;;;;;;;;;;4871472;29;20051;-84
2021/10/15 06:30:58;;;;;;;9.27;2.72;;;;;;;;;;4869912;29;20128;-83
2021/10/15 06:33:27;;;;;;;9.85;2.72;;;;;;;;;;4867071;29;20036;-82
2021/10/15 06:35:54;;;;;;;10.00;2.63;;;;;;;;;;4868542;29;20718;-82
2021/10/15 06:38:21;;;;;;;10.88;2.78;;;;;;;;;;4863732;29;20058;-80
2021/10/15 06:40:48;;;;;;;11.48;2.85;;;;;;;;;;4855889;29;20089;-80
2021/10/15 06:43:15;;;;;;;9.40;2.80;;;;;;;;;;4862832;29;20041;-81
2021/10/15 06:45:41;;;;;;;8.18;2.50;;;;;;;;;;4867473;29;20159;-81
2021/10/15 06:48:07;;;;;;;14.73;2.88;;;;;;;;;;4850761;29;20406;-82
2021/10/15 06:50:34;;;;;;;;;;;;;;;;;;4850887;29;20036;-81
2021/10/15 06:53:01;;;;;;;14.15;3.42;;;;;;;;;;4866359;29;20009;-82
2021/10/15 06:55:28;;;;;;;10.18;2.80;;;;;;;;;;4864355;29;20045;-81
2021/10/15 06:57:55;;;;;;;11.18;3.00;;;;;;;;;;4867620;29;20036;-81
2021/10/15 07:00:22;;;;;;;8.85;3.13;;;;;;;;;;4847345;29;20044;-83
2021/10/15 07:02:49;;;;;;;11.25;3.03;;;;;;;;;;4864549;29;20517;-83
2021/10/15 07:05:15;;;;;;;10.75;3.13;;;;;;;;;;4851740;29;20404;-81
2021/10/15 07:07:42;;;;;;;10.80;3.40;;;;;;;;;;4869068;29;20036;-82
2021/10/15 07:10:09;;;;;;;10.32;3.67;;;;;;;;;;4864425;29;20033;-81
2021/10/15 07:12:41;;;;;;;10.55;3.45;;;;;;;;;;4866340;29;20041;-81
2021/10/15 07:15:10;;;;;;;11.85;3.55;;;;;;;;;;4862902;29;20143;-81
2021/10/15 07:17:37;;;;;;;14.90;3.92;;;;;;;;;;4874224;29;20120;-82
2021/10/15 07:20:06;;;;;;;10.77;3.47;;;;;;;;;;4877005;29;20027;-83
2021/10/15 07:22:32;;;;;;;10.52;3.92;;;;;;;;;;4861044;29;20127;-82
2021/10/15 07:24:59;;;;;;;12.57;4.25;;;;;;;;;;4872135;29;20033;-82
2021/10/15 07:27:26;;;;;;;19.25;6.93;;;;;;;;;;4877588;29;20080;-81
2021/10/15 07:29:53;;;;;;;21.95;5.97;;;;;;;;;;4877890;29;20033;-82
2021/10/15 07:32:19;;;;;;;24.42;9.73;;;;;;;;;;4859440;29;20028;-81
2021/10/15 07:34:46;;;;;;;19.13;6.03;;;;;;;;;;4871022;29;20041;-85
2021/10/15 07:37:13;;;;;;;21.33;5.75;;;;;;;;;;4886114;29;20072;-84
2021/10/15 07:39:40;;;;;;;18.90;6.13;;;;;;;;;;4879000;29;20401;-86
2021/10/15 07:42:09;;;;;;;18.73;5.43;;;;;;;;;;4862646;29;20040;-86
2021/10/15 07:44:35;;;;;;;13.05;3.97;;;;;;;;;;4871171;29;20047;-85
2021/10/15 07:47:02;;;;;;;12.88;4.10;;;;;;;;;;4888400;29;21451;-85
2021/10/15 07:49:29;;;;;;;11.60;3.30;;;;;;;;;;4887446;29;20081;-85
2021/10/15 07:51:55;;;;;;;11.43;4.13;;;;;;;;;;4865441;29;20041;-86
2021/10/15 07:54:21;;;;;;;;;;;;;;;;;;4876585;29;20045;-86
2021/10/15 07:56:48;;;;;;;13.63;4.32;;;;;;;;;;4866407;29;21165;-86
2021/10/15 07:59:15;;;;;;;16.27;5.20;;;;;;;;;;4875082;29;20036;-86
2021/10/15 08:01:44;;;;;;;14.02;4.93;;;;;;;;;;4881509;29;20151;-86
2021/10/15 08:04:10;;;;;;;13.55;5.32;;;;;;;;;;4871405;29;20040;-85
2021/10/15 08:06:37;;;;;;;14.77;6.25;;;;;;;;;;4861582;29;20032;-86
2021/10/15 08:09:03;;;;;;;15.85;6.85;;;;;;;;;;4866419;29;20056;-85
2021/10/15 08:11:29;;;;;;;;;;;;;;;;;;4878732;29;20043;-84
2021/10/15 08:13:56;;;;;;;17.92;5.68;;;;;;;;;;4881423;29;19908;-83
2021/10/15 08:16:23;;;;;;;16.23;5.18;;;;;;;;;;4866109;29;20052;-84
2021/10/15 08:18:49;;;;;;;13.98;4.13;;;;;;;;;;4852785;29;20227;-84
2021/10/15 08:21:16;;;;;;;12.82;4.13;;;;;;;;;;4842772;29;20401;-81
2021/10/15 08:23:44;;;;;;;12.27;4.55;;;;;;;;;;4846943;29;20052;-81
2021/10/15 08:26:11;;;;;;;11.13;3.60;;;;;;;;;;4843215;29;20041;-83
2021/10/15 08:28:38;;;;;;;10.80;3.88;;;;;;;;;;4846881;29;20467;-82
2021/10/15 08:31:05;;;;;;;10.13;3.42;;;;;;;;;;4851031;29;20045;-80
2021/10/15 08:33:32;;;;;;;11.20;2.70;;;;;;;;;;4848119;29;20029;-80
2021/10/15 08:35:58;;;;;;;11.32;2.38;;;;;;;;;;4847495;29;20048;-81
2021/10/15 08:38:25;;;;;;;8.98;2.30;;;;;;;;;;4858039;29;20029;-80
2021/10/15 08:40:51;;;;;;;9.95;2.55;;;;;;;;;;4857664;29;20073;-82
2021/10/15 08:43:18;;;;;;;6.45;1.95;;;;;;;;;;4857947;29;20048;-80
2021/10/15 08:45:45;;;;;;;10.40;2.45;;;;;;;;;;4847318;29;20049;-80
2021/10/15 08:48:12;;;;;;;10.95;2.45;;;;;;;;;;4856603;29;20041;-83
2021/10/15 08:50:39;;;;;;;8.48;2.63;;;;;;;;;;4857969;29;20056;-82
2021/10/15 08:53:07;;;;;;;7.72;2.03;;;;;;;;;;4842937;29;20623;-81
2021/10/15 08:55:34;;;;;;;7.40;2.13;;;;;;;;;;4847322;29;20080;-80
2021/10/15 08:58:02;;;;;;;8.95;2.28;;;;;;;;;;4842779;29;20037;-81
2021/10/15 09:00:31;;;;;;;8.88;2.05;;;;;;;;;;4853570;29;20070;-82
2021/10/15 09:03:16;;;;;;;7.25;1.90;;;;;;;;;;4855295;29;20064;-80
2021/10/15 09:05:43;;;;;;;7.60;1.90;;;;;;;;;;4845817;29;20033;-81
2021/10/15 09:08:10;;;;;;;6.95;2.00;;;;;;;;;;4835935;29;20037;-81
2021/10/15 09:10:37;;;;;;;8.57;2.13;;;;;;;;;;4840609;29;20120;-82
2021/10/15 09:13:19;;;;;;;9.15;2.30;;;;;;;;;;4845534;29;20228;-82
2021/10/15 09:15:47;;;;;;;9.30;2.53;;;;;;;;;;4846465;29;20139;-81
2021/10/15 09:18:16;;;;;;;11.95;3.15;;;;;;;;;;4860548;29;20627;-83
2021/10/15 09:20:44;;;;;;;10.75;2.88;;;;;;;;;;4837544;29;20049;-80
2021/10/15 09:23:11;;;;;;;11.98;3.47;;;;;;;;;;4865102;29;20037;-81
2021/10/15 09:25:41;;;;;;;9.93;3.28;;;;;;;;;;4868416;29;20047;-80
2021/10/15 09:28:18;;;;;;;11.85;2.75;;;;;;;;;;4853163;29;20455;-81
2021/10/15 09:30:47;;;;;;;9.25;2.20;;;;;;;;;;4867329;29;20623;-81
2021/10/15 09:33:13;;;;;;;9.80;2.20;;;;;;;;;;4866250;29;20123;-83
2021/10/15 09:35:40;;;;;;;6.00;1.70;;;;;;;;;;4866435;29;20505;-84
2021/10/15 09:38:08;;;;;;;7.72;2.13;;;;;;;;;;4865001;29;20494;-81
2021/10/15 09:40:43;;;;;;;8.80;2.42;;;;;;;;;;4855005;29;20056;-81
2021/10/15 09:43:11;;;;;;;9.50;1.98;;;;;;;;;;4865020;29;20040;-81
2021/10/15 09:45:39;;;;;;;8.48;1.85;;;;;;;;;;4852810;29;20048;-81
2021/10/15 09:48:31;;;;;;;9.43;2.10;;;;;;;;;;4853216;29;20119;-79
2021/10/15 09:51:10;;;;;;;7.93;2.33;;;;;;;;;;4866044;29;20043;-81
2021/10/15 09:53:36;;;;;;;10.50;1.90;;;;;;;;;;4864356;29;20551;-81
2021/10/15 09:56:03;;;;;;;8.98;2.53;;;;;;;;;;4869477;29;20080;-80
2021/10/15 09:58:30;;;;;;;7.43;1.75;;;;;;;;;;4860615;29;20037;-79
2021/10/15 10:00:57;;;;;;;10.02;1.90;;;;;;;;;;4866593;29;20045;-80
2021/10/15 10:03:28;;;;;;;11.00;2.20;;;;;;;;;;4847316;29;20590;-78
2021/10/15 10:05:54;;;;;;;7.80;2.20;;;;;;;;;;4865988;29;20064;-79
2021/10/15 10:08:22;;;;;;;8.52;1.90;;;;;;;;;;4862171;29;20068;-80
2021/10/15 10:10:48;;;;;;;9.85;2.58;;;;;;;;;;4850946;29;20579;-80
2021/10/15 10:13:15;;;;;;;8.63;1.80;;;;;;;;;;4861532;29;20036;-83
2021/10/15 10:15:43;;;;;;;8.68;2.35;;;;;;;;;;4867459;29;20045;-82
2021/10/15 10:21:18;;;;;;;7.53;1.95;;;;;;;;;;4867351;29;20056;-81
2021/10/15 10:23:56;;;;;;;8.93;2.80;;;;;;;;;;4823696;29;20470;-80
2021/10/15 10:26:23;;;;;;;11.55;3.40;;;;;;;;;;4810447;29;20045;-80
2021/10/15 10:29:02;;;;;;;8.98;2.70;;;;;;;;;;4815688;29;20037;-80
2021/10/15 10:31:28;;;;;;;12.45;3.03;;;;;;;;;;4825277;29;20045;-81
2021/10/15 10:33:56;;;;;;;10.20;2.53;;;;;;;;;;4812730;29;20049;-80
2021/10/15 10:36:23;;;;;;;9.07;2.08;;;;;;;;;;4827481;29;20060;-80
2021/10/15 10:38:49;;;;;;;8.55;1.80;;;;;;;;;;4815333;29;20049;-81
2021/10/15 10:41:19;;;;;;;10.43;2.22;;;;;;;;;;4811882;29;20037;-82
2021/10/15 10:43:46;;;;;;;10.15;2.10;;;;;;;;;;4829344;29;20041;-81
2021/10/15 10:46:24;;;;;;;12.07;2.00;;;;;;;;;;4813283;29;20045;-81
2021/10/15 10:48:50;;;;;;;8.85;1.90;;;;;;;;;;4829212;29;20033;-83
2021/10/15 10:51:18;;;;;;;8.40;2.20;;;;;;;;;;4810993;29;20106;-82
2021/10/15 10:54:04;;;;;;;8.63;2.10;;;;;;;;;;4827904;29;20129;-82
2021/10/15 10:56:50;;;;;;;8.43;2.10;;;;;;;;;;4830778;29;20034;-82
2021/10/15 11:02:03;;;;;;;8.30;2.08;;;;;;;;;;4869288;29;20047;-84
2021/10/15 11:04:41;;;;;;;8.98;2.00;;;;;;;;;;4861074;29;20037;-81
2021/10/15 11:07:09;;;;;;;8.68;1.75;;;;;;;;;;4862776;29;20158;-82
2021/10/15 11:09:41;;;;;;;7.60;1.77;;;;;;;;;;4867531;29;20140;-81
2021/10/15 11:12:08;;;;;;;8.75;1.92;;;;;;;;;;4848746;29;20041;-82
2021/10/15 11:14:53;;;;;;;6.70;1.90;;;;;;;;;;4861357;29;20184;-85
2021/10/15 11:17:24;;;;;;;7.90;1.83;;;;;;;;;;4870532;29;20147;-86
2021/10/15 11:20:09;;;;;;;8.38;2.17;;;;;;;;;;4871885;29;20048;-84
2021/10/15 11:22:36;;;;;;;8.18;1.65;;;;;;;;;;4866938;29;20056;-83
2021/10/15 11:25:04;;;;;;;10.38;2.10;;;;;;;;;;4849488;29;20104;-82
2021/10/15 11:27:30;;;;;;;9.35;2.20;;;;;;;;;;4857609;29;20150;-82
2021/10/15 11:29:58;;;;;;;7.57;1.77;;;;;;;;;;4864249;29;20164;-81
2021/10/15 11:32:30;;;;;;;8.55;2.20;;;;;;;;;;4864238;29;20540;-81
2021/10/15 11:35:05;;;;;;;7.93;1.98;;;;;;;;;;4865938;29;20040;-82
2021/10/15 11:37:46;;;;;;;6.30;1.70;;;;;;;;;;4867267;29;20104;-82
2021/10/15 11:40:28;;;;;;;7.28;1.48;;;;;;;;;;4861899;29;20036;-83
2021/10/15 11:43:06;;;;;;;6.60;1.63;;;;;;;;;;4862304;29;20042;-82
2021/10/15 11:45:34;;;;;;;9.65;2.22;;;;;;;;;;4862482;29;20725;-80
2021/10/15 11:48:02;;;;;;;11.07;2.10;;;;;;;;;;4864255;29;20044;-83
2021/10/15 11:50:55;;;;;;;7.78;1.85;;;;;;;;;;4856575;29;20051;-83
2021/10/15 11:53:23;;;;;;;11.82;2.20;;;;;;;;;;4854756;29;20049;-82
2021/10/15 11:55:50;;;;;;;7.40;1.85;;;;;;;;;;4861527;29;20044;-82
2021/10/15 11:58:31;;;;;;;10.07;2.03;;;;;;;;;;4857837;29;20128;-79
2021/10/15 12:00:58;;;;;;;6.20;1.65;;;;;;;;;;4855277;29;20044;-80
2021/10/15 12:03:31;;;;;;;9.88;1.90;;;;;;;;;;4859229;29;20408;-80
2021/10/15 12:06:10;;;;;;;9.38;1.80;;;;;;;;;;4844871;29;20037;-80
2021/10/15 12:08:38;;;;;;;6.53;1.90;;;;;;;;;;4857173;29;20032;-80
2021/10/15 12:11:07;;;;;;;10.60;2.00;;;;;;;;;;4869868;29;20655;-81
2021/10/15 12:13:33;;;;;;;7.03;1.70;;;;;;;;;;4864582;29;20048;-80
2021/10/15 12:15:59;;;;;;;7.03;1.77;;;;;;;;;;4890391;29;20054;-81
2021/10/15 12:18:30;;;;;;;6.30;1.75;;;;;;;;;;4882343;29;23149;-79
2021/10/15 12:21:11;;;;;;;7.88;1.92;;;;;;;;;;4881345;29;20032;-80
2021/10/15 12:23:55;;;;;;;6.88;1.70;;;;;;;;;;4878992;29;20045;-79
2021/10/15 12:26:23;;;;;;;6.75;1.65;;;;;;;;;;4866548;29;20458;-79
2021/10/15 12:28:50;;;;;;;7.63;1.90;;;;;;;;;;4875223;29;20100;-80
2021/10/15 12:31:33;;;;;;;8.30;2.20;;;;;;;;;;4869845;29;20033;-79
2021/10/15 12:34:14;;;;;;;7.82;2.10;;;;;;;;;;4864453;29;20078;-79
2021/10/15 12:36:42;;;;;;;6.40;1.58;;;;;;;;;;4869422;29;20068;-79
2021/10/15 12:39:15;;;;;;;7.10;1.80;;;;;;;;;;4864242;29;20044;-79
2021/10/15 12:41:42;;;;;;;8.52;1.60;;;;;;;;;;4866172;29;20054;-81
2021/10/15 12:44:26;;;;;;;6.47;1.70;;;;;;;;;;4866856;29;20120;-79
2021/10/15 12:46:58;;;;;;;6.97;1.92;;;;;;;;;;4835426;29;20135;-79
2021/10/15 12:49:26;;;;;;;9.65;2.00;;;;;;;;;;4845146;29;20041;-79
2021/10/15 12:51:52;;;;;;;8.82;1.98;;;;;;;;;;4870162;29;20075;-82
2021/10/15 12:54:38;;;;;;;9.00;1.70;;;;;;;;;;4866087;29;20040;-82
2021/10/15 12:57:14;;;;;;;6.70;1.70;;;;;;;;;;4869158;29;20154;-83
2021/10/15 12:59:42;;;;;;;9.68;1.80;;;;;;;;;;4856953;29;20068;-80
2021/10/15 13:02:09;;;;;;;7.88;1.60;;;;;;;;;;4867210;29;20042;-81
2021/10/15 13:04:36;;;;;;;7.05;1.88;;;;;;;;;;4873721;29;20789;-81
2021/10/15 13:07:03;;;;;;;11.25;1.98;;;;;;;;;;4869803;29;20162;-81
2021/10/15 13:09:31;;;;;;;9.23;1.90;;;;;;;;;;4864485;29;20042;-82
2021/10/15 13:11:59;;;;;;;6.13;1.55;;;;;;;;;;4868922;29;20396;-81
2021/10/15 13:14:26;;;;;;;7.38;1.88;;;;;;;;;;4866601;29;20036;-82
2021/10/15 13:16:53;;;;;;;6.95;1.45;;;;;;;;;;4866010;29;20069;-83
2021/10/15 13:19:19;;;;;;;7.30;1.60;;;;;;;;;;4847263;29;20045;-83
2021/10/15 13:21:45;;;;;;;6.35;1.60;;;;;;;;;;4869651;29;20048;-82
2021/10/15 13:24:12;;;;;;;8.23;1.70;;;;;;;;;;4853364;29;20045;-82
2021/10/15 13:26:38;;;;;;;7.63;1.80;;;;;;;;;;4859643;29;20129;-82
2021/10/15 13:29:05;;;;;;;7.07;1.70;;;;;;;;;;4887328;29;20036;-82
2021/10/15 13:31:33;;;;;;;5.85;1.58;;;;;;;;;;4879754;29;20035;-81
2021/10/15 13:34:01;;;;;;;9.13;1.90;;;;;;;;;;4855115;29;20572;-82
2021/10/15 13:36:28;;;;;;;7.68;2.10;;;;;;;;;;4854638;29;20618;-82
2021/10/15 13:38:55;;;;;;;8.50;1.98;;;;;;;;;;4854966;29;20100;-81
2021/10/15 13:41:52;;;;;;;8.35;1.95;;;;;;;;;;4854618;29;20662;-81
2021/10/15 13:47:30;;;;;;;9.25;2.00;;;;;;;;;;4833563;29;20041;-82
2021/10/15 13:49:58;;;;;;;9.90;1.98;;;;;;;;;;4822447;29;20052;-81
2021/10/15 13:52:26;;;;;;;8.85;1.80;;;;;;;;;;4819927;29;20048;-81
2021/10/15 13:54:52;;;;;;;6.35;1.80;;;;;;;;;;4837238;29;20050;-81
2021/10/15 13:57:21;;;;;;;7.57;1.77;;;;;;;;;;4829093;29;20069;-82
2021/10/15 14:02:15;;;;;;;7.70;1.50;;;;;;;;;;4824715;29;20775;-83
2021/10/15 14:04:43;;;;;;;10.40;1.63;;;;;;;;;;4813958;29;20038;-80
2021/10/15 14:07:10;;;;;;;8.50;1.80;;;;;;;;;;4813815;29;20899;-81
2021/10/15 14:09:37;;;;;;;10.90;2.22;;;;;;;;;;4815145;29;20042;-80
2021/10/15 14:12:04;;;;;;;9.55;2.03;;;;;;;;;;4827800;29;20066;-81
2021/10/15 14:14:31;;;;;;;9.85;1.88;;;;;;;;;;4827484;29;20028;-80
2021/10/15 14:16:57;;;;;;;8.88;2.05;;;;;;;;;;4811893;29;20045;-82
2021/10/15 14:19:23;;;;;;;10.05;2.08;;;;;;;;;;4824149;29;20046;-81
2021/10/15 14:21:50;;;;;;;6.60;1.83;;;;;;;;;;4817732;29;20090;-80
2021/10/15 14:24:17;;;;;;;8.75;1.92;;;;;;;;;;4859949;29;20053;-80
2021/10/15 14:26:44;;;;;;;6.82;1.88;;;;;;;;;;4847270;29;20493;-82
2021/10/15 14:29:11;;;;;;;7.50;1.73;;;;;;;;;;4860037;29;20043;-82
2021/10/15 14:31:37;;;;;;;7.72;1.73;;;;;;;;;;4861922;29;20144;-81
2021/10/15 14:34:04;;;;;;;13.90;2.17;;;;;;;;;;4850324;29;20040;-82
2021/10/15 14:36:30;;;;;;;6.88;1.77;;;;;;;;;;4858956;29;20033;-80
2021/10/15 14:38:59;;;;;;;6.38;1.70;;;;;;;;;;4847645;29;20044;-81
2021/10/15 14:41:26;;;;;;;8.55;1.65;;;;;;;;;;4857213;29;20632;-81
2021/10/15 14:43:52;;;;;;;7.95;1.95;;;;;;;;;;4862779;29;20094;-82
2021/10/15 14:46:19;;;;;;;7.18;1.77;;;;;;;;;;4847040;29;20044;-82
2021/10/15 14:48:46;;;;;;;9.57;2.15;;;;;;;;;;4853341;29;20029;-81
2021/10/15 14:51:13;;;;;;;9.30;2.28;;;;;;;;;;4864690;29;20056;-79
2021/10/15 14:53:40;;;;;;;8.70;1.83;;;;;;;;;;4852543;29;20041;-83
2021/10/15 14:56:08;;;;;;;8.38;1.75;;;;;;;;;;4862776;29;20096;-81
2021/10/15 14:58:34;;;;;;;7.50;1.75;;;;;;;;;;4849052;29;20037;-82
2021/10/15 15:01:09;;;;;;;6.40;1.80;;;;;;;;;;4857843;29;20117;-82
2021/10/15 15:03:36;;;;;;;7.25;1.80;;;;;;;;;;4852397;29;20124;-81
2021/10/15 15:06:02;;;;;;;6.60;1.60;;;;;;;;;;4851569;29;20067;-81
2021/10/15 15:08:30;;;;;;;7.82;1.90;;;;;;;;;;4858812;29;20029;-81
2021/10/15 15:10:57;;;;;;;9.13;2.00;;;;;;;;;;4848393;29;20032;-82
2021/10/15 15:13:26;;;;;;;8.65;1.95;;;;;;;;;;4859560;29;20040;-82
2021/10/15 15:15:52;;;;;;;8.35;2.10;;;;;;;;;;4853109;29;20061;-81